Time;durP1;ratioP1;P1;durP2;ratioP2;P2;SDS_P1;SDS_P2;PMS_P1;PMS_P2;Temp;Humidity;BMP_temperature;BMP_pressure;BME280_temperature;BME280_humidity;BME280_pressure;Samples;Min_cycle;Max_cycle;Signal;HPM_P1;HPM_P2
2022/07/22 00:01:27;;;;;;;;;;;;;;;27.21;100.00;98245.66;5142522;27;19923;-60
2022/07/22 00:03:54;;;;;;;;;;;;;;;27.37;99.74;98243.59;5143228;27;19926;-60
2022/07/22 00:06:20;;;;;;;;;;;;;;;27.44;98.34;98240.22;5144975;27;19982;-60
2022/07/22 00:08:46;;;;;;;;;;;;;;;27.42;98.88;98237.03;5145628;27;19974;-60
2022/07/22 00:11:13;;;;;;;;;;;;;;;27.19;100.00;98239.75;5142130;27;19924;-60
2022/07/22 00:13:40;;;;;;;;;;;;;;;26.33;100.00;98236.44;5140584;27;19919;-60
2022/07/22 00:16:07;;;;;;;;;;;;;;;26.45;100.00;98235.50;5142723;27;19966;-61
2022/07/22 00:18:33;;;;;;;;;;;;;;;26.62;100.00;98244.09;5141985;27;19930;-61
2022/07/22 00:20:59;;;;;;;;;;;;;;;26.79;100.00;98243.66;5143530;27;19982;-60
2022/07/22 00:23:26;;;;;;;;;;;;;;;26.19;100.00;98238.84;5145562;27;19923;-59
2022/07/22 00:25:53;;;;;;;;;;;;;;;26.14;100.00;98239.09;5144790;27;19972;-60
2022/07/22 00:28:20;;;;;;;;;;;;;;;26.48;100.00;98241.06;5142077;27;19923;-60
2022/07/22 00:30:47;;;;;;;;;;;;;;;26.91;100.00;98234.53;5141780;27;19927;-61
2022/07/22 00:33:14;;;;;;;;;;;;;;;27.07;100.00;98235.25;5141859;27;20007;-60
2022/07/22 00:35:40;;;;;;;;;;;;;;;27.16;100.00;98232.25;5141766;27;19923;-59
2022/07/22 00:38:06;;;;;;;;;;;;;;;27.21;100.00;98226.47;5144355;27;19934;-60
2022/07/22 00:40:33;;;;;;;;;;;;;;;27.19;100.00;98226.03;5145320;27;19965;-59
2022/07/22 00:43:00;;;;;;;;;;;;;;;27.22;99.90;98228.06;5136357;27;19926;-60
2022/07/22 00:45:26;;;;;;;;;;;;;;;27.27;99.14;98225.81;5145004;27;19930;-59
2022/07/22 00:47:54;;;;;;;;;;;;;;;27.37;98.51;98229.91;5144351;27;19933;-60
2022/07/22 00:50:20;;;;;;;;;;;;;;;27.40;97.97;98220.94;5141760;27;19972;-60
2022/07/22 00:52:48;;;;;;;;;;;;;;;27.39;97.96;98219.34;5141187;27;19924;-60
2022/07/22 00:55:14;;;;;;;;;;;;;;;27.45;96.70;98223.41;5132561;27;19924;-59
2022/07/22 00:57:41;;;;;;;;;;;;;;;27.50;96.91;98225.84;5141255;27;19947;-60
2022/07/22 01:00:08;;;;;;;;;;;;;;;27.47;96.68;98225.78;5143894;27;19987;-59
2022/07/22 01:02:35;;;;;;;;;;;;;;;27.45;97.17;98223.41;5144637;27;20487;-59
2022/07/22 01:05:03;;;;;;;;;;;;;;;27.50;96.41;98219.56;5142717;27;19983;-59
2022/07/22 01:07:29;;;;;;;;;;;;;;;27.46;96.98;98218.72;5141118;27;19924;-60
2022/07/22 01:09:55;;;;;;;;;;;;;;;27.44;97.01;98224.56;5141968;27;19983;-61
2022/07/22 01:12:22;;;;;;;;;;;;;;;27.39;97.64;98213.09;5139822;27;20377;-60
2022/07/22 01:14:48;;;;;;;;;;;;;;;27.38;96.93;98212.28;5140729;27;19991;-59
2022/07/22 01:17:14;;;;;;;;;;;;;;;27.39;96.97;98213.09;5144399;27;19919;-59
2022/07/22 01:19:41;;;;;;;;;;;;;;;27.36;97.28;98217.34;5144342;27;19930;-60
2022/07/22 01:22:09;;;;;;;;;;;;;;;27.30;97.87;98208.63;5141444;27;20128;-60
2022/07/22 01:24:36;;;;;;;;;;;;;;;27.22;98.75;98212.41;5140774;27;19928;-60
2022/07/22 01:27:02;;;;;;;;;;;;;;;27.28;97.53;98218.38;5142608;27;19924;-60
2022/07/22 01:29:29;;;;;;;;;;;;;;;27.32;98.03;98216.50;5144215;27;19923;-59
2022/07/22 01:31:55;;;;;;;;;;;;;;;27.15;98.97;98219.69;5142006;27;19958;-60
2022/07/22 01:34:21;;;;;;;;;;;;;;;27.01;100.00;98211.22;5140727;27;19931;-60
2022/07/22 01:36:47;;;;;;;;;;;;;;;27.08;100.00;98212.13;5140496;27;19963;-59
2022/07/22 01:39:15;;;;;;;;;;;;;;;27.00;100.00;98215.09;5140574;27;20009;-59
2022/07/22 01:41:42;;;;;;;;;;;;;;;27.01;100.00;98209.28;5140507;27;19923;-60
2022/07/22 01:44:08;;;;;;;;;;;;;;;27.07;98.88;98209.78;5140342;27;19923;-63
2022/07/22 01:46:34;;;;;;;;;;;;;;;26.65;100.00;98209.69;5140034;27;19934;-60
2022/07/22 01:49:01;;;;;;;;;;;;;;;26.58;100.00;98212.31;5141843;27;19930;-60
2022/07/22 01:51:27;;;;;;;;;;;;;;;26.74;100.00;98205.59;5143941;27;19930;-60
2022/07/22 01:53:53;;;;;;;;;;;;;;;26.85;100.00;98208.56;5142817;27;19933;-60
2022/07/22 01:56:21;;;;;;;;;;;;;;;26.80;100.00;98201.44;5140162;27;19920;-60
2022/07/22 01:58:47;;;;;;;;;;;;;;;26.80;100.00;98203.41;5139914;27;19924;-60
2022/07/22 02:01:13;;;;;;;;;;;;;;;26.89;100.00;98206.69;5131563;27;19991;-59
2022/07/22 02:03:40;;;;;;;;;;;;;;;26.94;100.00;98200.13;5138784;27;19999;-60
2022/07/22 02:06:06;;;;;;;;;;;;;;;27.02;99.12;98201.84;5142426;27;19999;-60
2022/07/22 02:08:33;;;;;;;;;;;;;;;26.99;99.28;98200.59;5142603;27;19994;-59
2022/07/22 02:10:59;;;;;;;;;;;;;;;26.91;100.00;98198.09;5141904;27;19930;-59
2022/07/22 02:13:27;;;;;;;;;;;;;;;26.70;100.00;98196.53;5135665;27;19933;-60
2022/07/22 02:15:54;;;;;;;;;;;;;;;26.65;100.00;98202.28;5142479;27;20010;-61
2022/07/22 02:18:20;;;;;;;;;;;;;;;26.74;100.00;98200.09;5139821;27;19990;-60
2022/07/22 02:20:47;;;;;;;;;;;;;;;26.87;100.00;98205.47;5139646;27;19930;-59
2022/07/22 02:23:13;;;;;;;;;;;;;;;26.88;100.00;98196.09;5143067;27;19966;-59
2022/07/22 02:25:41;;;;;;;;;;;;;;;26.93;100.00;98195.78;5143204;27;20594;-60
2022/07/22 02:28:07;;;;;;;;;;;;;;;26.87;100.00;98197.22;5140113;27;19924;-59
2022/07/22 02:30:35;;;;;;;;;;;;;;;26.87;100.00;98200.78;5139567;27;19938;-60
2022/07/22 02:33:01;;;;;;;;;;;;;;;26.76;100.00;98195.06;5141324;27;19924;-60
2022/07/22 02:35:28;;;;;;;;;;;;;;;26.67;100.00;98199.97;5143139;27;19954;-59
2022/07/22 02:37:54;;;;;;;;;;;;;;;26.71;100.00;98206.31;5142041;27;19927;-60
2022/07/22 02:40:20;;;;;;;;;;;;;;;26.60;100.00;98205.31;5139265;27;19983;-61
2022/07/22 02:42:47;;;;;;;;;;;;;;;26.61;100.00;98198.69;5137311;27;19930;-60
2022/07/22 02:45:13;;;;;;;;;;;;;;;26.68;100.00;98201.56;5142627;27;19923;-59
2022/07/22 02:47:47;;;;;;;;;;;;;;;26.30;100.00;98196.09;5142836;27;19934;-58
2022/07/22 02:50:13;;;;;;;;;;;;;;;26.30;100.00;98199.59;5139301;28;19931;-60
2022/07/22 02:52:39;;;;;;;;;;;;;;;26.46;100.00;98196.78;5139143;27;19993;-59
2022/07/22 02:55:06;;;;;;;;;;;;;;;26.48;100.00;98197.25;5140436;27;19939;-60
2022/07/22 02:57:33;;;;;;;;;;;;;;;26.18;100.00;98209.91;5142754;27;19990;-59
2022/07/22 02:59:59;;;;;;;;;;;;;;;26.29;100.00;98210.91;5141116;28;19920;-60
2022/07/22 03:02:25;;;;;;;;;;;;;;;26.44;100.00;98212.81;5139418;28;19958;-60
2022/07/22 03:04:53;;;;;;;;;;;;;;;26.49;100.00;98209.75;5139534;28;19992;-59
2022/07/22 03:07:19;;;;;;;;;;;;;;;26.33;100.00;98202.78;5142663;28;19924;-60
2022/07/22 03:09:46;;;;;;;;;;;;;;;26.44;100.00;98212.00;5142696;28;19991;-60
2022/07/22 03:12:12;;;;;;;;;;;;;;;26.53;100.00;98205.16;5137234;28;19969;-60
2022/07/22 03:14:38;;;;;;;;;;;;;;;26.57;100.00;98206.03;5138927;28;20614;-60
2022/07/22 03:17:04;;;;;;;;;;;;;;;26.52;100.00;98205.53;5141203;28;19923;-60
2022/07/22 03:19:31;;;;;;;;;;;;;;;26.36;100.00;98208.34;5145104;27;19930;-60
2022/07/22 03:21:58;;;;;;;;;;;;;;;26.43;100.00;98216.69;5145428;27;19986;-60
2022/07/22 03:24:25;;;;;;;;;;;;;;;26.47;100.00;98209.34;5143039;27;19954;-59
2022/07/22 03:26:51;;;;;;;;;;;;;;;26.49;100.00;98204.28;5143354;27;19924;-61
2022/07/22 03:29:17;;;;;;;;;;;;;;;26.46;100.00;98210.47;5146763;27;19990;-60
2022/07/22 03:31:44;;;;;;;;;;;;;;;26.44;100.00;98212.81;5146674;27;19986;-60
2022/07/22 03:34:10;;;;;;;;;;;;;;;26.45;100.00;98219.06;5143952;27;19975;-59
2022/07/22 03:36:36;;;;;;;;;;;;;;;26.47;100.00;98217.56;5143095;27;20355;-61
2022/07/22 03:39:04;;;;;;;;;;;;;;;26.46;100.00;98220.66;5144805;27;19946;-60
2022/07/22 03:41:30;;;;;;;;;;;;;;;26.46;100.00;98215.97;5146378;27;19987;-61
2022/07/22 03:43:57;;;;;;;;;;;;;;;26.48;100.00;98216.41;5143100;27;20406;-60
2022/07/22 03:46:23;;;;;;;;;;;;;;;26.22;100.00;98206.06;5142665;27;19954;-60
2022/07/22 03:48:49;;;;;;;;;;;;;;;26.09;100.00;98214.75;5142429;27;19924;-60
2022/07/22 03:51:15;;;;;;;;;;;;;;;26.14;100.00;98211.72;5146005;27;20008;-59
2022/07/22 03:53:42;;;;;;;;;;;;;;;26.18;100.00;98210.66;5146126;27;19995;-60
2022/07/22 03:56:09;;;;;;;;;;;;;;;25.97;100.00;98217.56;5143020;27;19944;-60
2022/07/22 03:58:36;;;;;;;;;;;;;;;26.10;100.00;98216.31;5142348;27;19951;-60
2022/07/22 04:01:02;;;;;;;;;;;;;;;26.02;100.00;98215.38;5144228;27;19934;-59
2022/07/22 04:03:28;;;;;;;;;;;;;;;25.89;100.00;98213.09;5145739;27;19982;-59
2022/07/22 04:05:55;;;;;;;;;;;;;;;25.99;100.00;98209.81;5144856;27;20006;-60
2022/07/22 04:08:21;;;;;;;;;;;;;;;25.92;100.00;98213.19;5142356;27;19924;-59
2022/07/22 04:10:47;;;;;;;;;;;;;;;26.05;100.00;98209.19;5142005;27;20078;-59
2022/07/22 04:13:15;;;;;;;;;;;;;;;26.12;100.00;98208.56;5130663;27;19995;-59
2022/07/22 04:15:41;;;;;;;;;;;;;;;26.06;100.00;98208.03;5145936;27;19934;-60
2022/07/22 04:18:08;;;;;;;;;;;;;;;26.09;100.00;98212.78;5142749;27;20008;-61
2022/07/22 04:20:34;;;;;;;;;;;;;;;26.10;100.00;98205.38;5142117;27;19926;-59
2022/07/22 04:23:00;;;;;;;;;;;;;;;25.88;100.00;98212.31;5143369;27;19919;-60
2022/07/22 04:25:27;;;;;;;;;;;;;;;25.70;100.00;98213.81;5145416;27;19934;-61
2022/07/22 04:27:53;;;;;;;;;;;;;;;25.30;100.00;98208.50;5144385;27;19919;-60
2022/07/22 04:30:21;;;;;;;;;;;;;;;25.04;100.00;98203.53;5140854;27;19924;-60
2022/07/22 04:32:47;;;;;;;;;;;;;;;25.12;100.00;98207.25;5141668;27;19928;-60
2022/07/22 04:35:13;;;;;;;;;;;;;;;25.02;100.00;98207.78;5145126;27;19919;-59
2022/07/22 04:37:40;;;;;;;;;;;;;;;25.06;100.00;98214.13;5144982;27;19987;-59
2022/07/22 04:40:06;;;;;;;;;;;;;;;24.33;100.00;98211.66;5142475;27;19955;-60
2022/07/22 04:42:33;;;;;;;;;;;;;;;24.21;100.00;98214.41;5139776;27;19927;-60
2022/07/22 04:44:59;;;;;;;;;;;;;;;24.23;100.00;98216.81;5142964;27;19966;-60
2022/07/22 04:47:27;;;;;;;;;;;;;;;24.52;100.00;98220.03;5145034;27;19923;-60
2022/07/22 04:49:53;;;;;;;;;;;;;;;24.85;100.00;98208.88;5144252;27;20007;-60
2022/07/22 04:52:20;;;;;;;;;;;;;;;25.14;100.00;98211.22;5141536;27;19923;-59
2022/07/22 04:54:46;;;;;;;;;;;;;;;24.85;100.00;98214.34;5141489;27;19923;-59
2022/07/22 04:57:12;;;;;;;;;;;;;;;24.73;100.00;98211.63;5144849;27;19962;-60
2022/07/22 04:59:39;;;;;;;;;;;;;;;25.02;100.00;98218.69;5144929;27;19923;-59
2022/07/22 05:02:05;;;;;;;;;;;;;;;24.45;100.00;98222.53;5141951;27;20036;-60
2022/07/22 05:04:33;;;;;;;;;;;;;;;24.05;100.00;98222.47;5140468;27;19930;-60
2022/07/22 05:07:00;;;;;;;;;;;;;;;24.19;100.00;98219.44;5141856;27;19924;-60
2022/07/22 05:09:26;;;;;;;;;;;;;;;24.26;100.00;98207.94;5143985;27;19923;-60
2022/07/22 05:11:52;;;;;;;;;;;;;;;24.46;100.00;98207.75;5141198;27;19955;-61
2022/07/22 05:14:19;;;;;;;;;;;;;;;24.70;100.00;98209.59;5140472;27;19946;-59
2022/07/22 05:16:46;;;;;;;;;;;;;;;24.83;100.00;98207.63;5140319;27;19969;-59
2022/07/22 05:19:12;;;;;;;;;;;;;;;25.06;100.00;98204.00;5143724;27;19986;-60
2022/07/22 05:21:40;;;;;;;;;;;;;;;25.41;100.00;98204.09;5143863;27;19919;-61
2022/07/22 05:24:07;;;;;;;;;;;;;;;25.44;100.00;98208.84;5141321;27;19953;-59
2022/07/22 05:26:33;;;;;;;;;;;;;;;25.59;100.00;98205.34;5140170;27;20001;-60
2022/07/22 05:29:00;;;;;;;;;;;;;;;25.41;100.00;98214.25;5141629;27;19924;-61
2022/07/22 05:31:26;;;;;;;;;;;;;;;25.44;100.00;98211.59;5143693;27;19957;-60
2022/07/22 05:33:52;;;;;;;;;;;;;;;25.31;100.00;98210.09;5142811;27;19975;-60
2022/07/22 05:36:19;;;;;;;;;;;;;;;25.37;100.00;98207.91;5140135;27;19979;-60
2022/07/22 05:38:46;;;;;;;;;;;;;;;24.81;100.00;98212.63;5139779;27;20014;-60
2022/07/22 05:41:13;;;;;;;;;;;;;;;25.00;100.00;98210.88;5143334;27;19995;-60
2022/07/22 05:43:39;;;;;;;;;;;;;;;24.90;100.00;98216.03;5141569;27;19954;-61
2022/07/22 05:46:07;;;;;;;;;;;;;;;24.60;100.00;98210.09;5140957;27;19934;-60
2022/07/22 05:48:33;;;;;;;;;;;;;;;24.56;100.00;98210.00;5140029;27;19990;-60
2022/07/22 05:50:59;;;;;;;;;;;;;;;24.52;100.00;98216.50;5141440;27;19934;-60
2022/07/22 05:53:26;;;;;;;;;;;;;;;24.67;100.00;98207.56;5143600;27;19924;-61
2022/07/22 05:55:53;;;;;;;;;;;;;;;24.73;100.00;98209.69;5142996;27;19934;-59
2022/07/22 05:58:20;;;;;;;;;;;;;;;25.33;100.00;98213.28;5139737;27;19930;-60
2022/07/22 06:00:46;;;;;;;;;;;;;;;25.42;100.00;98213.09;5139657;27;19928;-59
2022/07/22 06:03:12;;;;;;;;;;;;;;;25.57;100.00;98213.13;5143009;27;19933;-60
2022/07/22 06:05:38;;;;;;;;;;;;;;;25.98;100.00;98206.28;5143229;27;19919;-60
2022/07/22 06:08:05;;;;;;;;;;;;;;;26.23;100.00;98207.66;5140908;27;19927;-59
2022/07/22 06:10:31;;;;;;;;;;;;;;;26.17;100.00;98209.09;5139763;27;19952;-61
2022/07/22 06:12:59;;;;;;;;;;;;;;;26.16;100.00;98210.25;5138841;27;19950;-60
2022/07/22 06:15:25;;;;;;;;;;;;;;;26.57;100.00;98205.25;5143250;27;20006;-60
2022/07/22 06:17:51;;;;;;;;;;;;;;;26.25;100.00;98212.78;5142565;27;19982;-59
2022/07/22 06:20:18;;;;;;;;;;;;;;;26.18;100.00;98210.66;5139904;27;19983;-60
2022/07/22 06:22:44;;;;;;;;;;;;;;;26.25;100.00;98215.50;5139603;27;19924;-59
2022/07/22 06:25:11;;;;;;;;;;;;;;;26.41;100.00;98216.25;5142730;27;19923;-60
2022/07/22 06:27:37;;;;;;;;;;;;;;;26.65;100.00;98207.75;5143177;27;19963;-59
2022/07/22 06:30:06;;;;;;;;;;;;;;;26.29;100.00;98211.72;5140844;27;19923;-59
2022/07/22 06:32:32;;;;;;;;;;;;;;;26.49;100.00;98206.25;5139390;27;19945;-59
2022/07/22 06:34:59;;;;;;;;;;;;;;;26.21;100.00;98220.13;5140559;27;20015;-60
2022/07/22 06:37:26;;;;;;;;;;;;;;;26.56;100.00;98218.13;5142908;27;19927;-60
2022/07/22 06:39:52;;;;;;;;;;;;;;;26.90;100.00;98212.94;5142364;27;19947;-60
2022/07/22 06:42:18;;;;;;;;;;;;;;;26.98;100.00;98214.69;5137259;27;19990;-60
2022/07/22 06:44:44;;;;;;;;;;;;;;;26.70;100.00;98215.69;5139145;27;19978;-61
2022/07/22 06:47:12;;;;;;;;;;;;;;;26.74;100.00;98221.22;5142428;27;19935;-59
2022/07/22 06:49:38;;;;;;;;;;;;;;;26.99;100.00;98219.00;5142890;27;19932;-60
2022/07/22 06:52:05;;;;;;;;;;;;;;;27.40;100.00;98218.19;5140842;27;19927;-60
2022/07/22 06:54:31;;;;;;;;;;;;;;;27.39;100.00;98213.84;5138938;27;19923;-60
2022/07/22 06:56:57;;;;;;;;;;;;;;;26.83;100.00;98223.78;5140365;27;19934;-60
2022/07/22 06:59:24;;;;;;;;;;;;;;;27.52;100.00;98211.75;5142667;28;19927;-60
2022/07/22 07:01:50;;;;;;;;;;;;;;;27.86;100.00;98214.28;5142481;28;19951;-60
2022/07/22 07:04:18;;;;;;;;;;;;;;;27.67;100.00;98219.84;5139239;28;19923;-59
2022/07/22 07:06:45;;;;;;;;;;;;;;;26.99;100.00;98216.25;5139020;28;19970;-59
2022/07/22 07:09:11;;;;;;;;;;;;;;;26.55;100.00;98213.03;5142011;28;19924;-60
2022/07/22 07:11:37;;;;;;;;;;;;;;;26.94;100.00;98209.13;5141910;28;20011;-60
2022/07/22 07:14:04;;;;;;;;;;;;;;;27.14;100.00;98213.41;5138571;28;19930;-59
2022/07/22 07:16:30;;;;;;;;;;;;;;;26.81;100.00;98215.94;5138633;28;19928;-61
2022/07/22 07:18:56;;;;;;;;;;;;;;;26.65;100.00;98206.94;5139415;28;19924;-60
2022/07/22 07:21:24;;;;;;;;;;;;;;;26.67;100.00;98216.44;5142516;28;19992;-60
2022/07/22 07:23:50;;;;;;;;;;;;;;;26.66;100.00;98203.06;5142060;28;20012;-60
2022/07/22 07:26:17;;;;;;;;;;;;;;;26.75;100.00;98206.38;5138647;28;19993;-59
2022/07/22 07:28:43;;;;;;;;;;;;;;;27.49;100.00;98202.31;5138720;28;19974;-60
2022/07/22 07:31:09;;;;;;;;;;;;;;;27.08;100.00;98201.16;5141407;28;19927;-60
2022/07/22 07:33:36;;;;;;;;;;;;;;;26.90;100.00;98207.47;5142176;28;19987;-59
2022/07/22 07:36:02;;;;;;;;;;;;;;;26.98;100.00;98199.03;5140191;28;19982;-59
2022/07/22 07:38:30;;;;;;;;;;;;;;;27.38;100.00;98190.34;5138695;28;19931;-60
2022/07/22 07:40:56;;;;;;;;;;;;;;;27.77;100.00;98194.53;5139504;28;19927;-60
2022/07/22 07:43:23;;;;;;;;;;;;;;;27.33;100.00;98196.13;5140026;28;19923;-60
2022/07/22 07:45:49;;;;;;;;;;;;;;;27.95;100.00;98199.50;5141687;28;19926;-59
2022/07/22 07:48:15;;;;;;;;;;;;;;;28.27;100.00;98192.53;5130196;28;19924;-60
2022/07/22 07:50:42;;;;;;;;;;;;;;;28.13;100.00;98187.63;5138453;28;19923;-60
2022/07/22 07:53:08;;;;;;;;;;;;;;;27.45;100.00;98189.72;5141168;28;19934;-60
2022/07/22 07:55:38;;;;;;;;;;;;;;;27.54;100.00;98187.50;5142191;28;19924;-60
2022/07/22 07:58:04;;;;;;;;;;;;;;;27.22;100.00;98184.19;5139850;28;19926;-60
2022/07/22 08:00:32;;;;;;;;;;;;;;;27.09;100.00;98185.50;5138198;28;19932;-60
2022/07/22 08:02:58;;;;;;;;;;;;;;;27.34;100.00;98184.00;5139228;28;19923;-60
2022/07/22 08:05:25;;;;;;;;;;;;;;;28.05;100.00;98185.16;5142116;27;19930;-61
2022/07/22 08:07:51;;;;;;;;;;;;;;;27.72;100.00;98180.34;5145126;27;19983;-60
2022/07/22 08:10:17;;;;;;;;;;;;;;;27.80;100.00;98179.28;5142001;27;19943;-60
2022/07/22 08:12:45;;;;;;;;;;;;;;;28.10;100.00;98174.63;5139586;27;19924;-60
2022/07/22 08:15:11;;;;;;;;;;;;;;;27.46;100.00;98180.31;5144621;27;19923;-60
2022/07/22 08:17:38;;;;;;;;;;;;;;;27.44;100.00;98172.47;5145071;27;19946;-60
2022/07/22 08:20:05;;;;;;;;;;;;;;;27.00;100.00;98184.97;5142865;27;20521;-60
2022/07/22 08:22:32;;;;;;;;;;;;;;;26.86;100.00;98177.28;5141715;27;19966;-60
2022/07/22 08:24:58;;;;;;;;;;;;;;;26.94;100.00;98175.44;5142722;27;20153;-60
2022/07/22 08:27:24;;;;;;;;;;;;;;;26.87;100.00;98176.09;5145158;27;19978;-60
2022/07/22 08:29:52;;;;;;;;;;;;;;;27.03;100.00;98163.09;5144713;27;19926;-59
2022/07/22 08:32:19;;;;;;;;;;;;;;;27.18;100.00;98158.66;5141261;27;19997;-60
2022/07/22 08:34:45;;;;;;;;;;;;;;;27.05;99.50;98166.25;5141338;27;19924;-59
2022/07/22 08:37:11;;;;;;;;;;;;;;;26.83;98.56;98165.06;5144278;27;19990;-60
2022/07/22 08:39:37;;;;;;;;;;;;;;;26.95;94.92;98168.81;5144581;27;19934;-60
2022/07/22 08:42:04;;;;;;;;;;;;;;;27.77;96.82;98164.34;5140265;27;19920;-60
2022/07/22 08:44:30;;;;;;;;;;;;;;;27.52;81.69;98152.19;5140675;27;19999;-60
2022/07/22 08:46:58;;;;;;;;;;;;;;;27.42;86.07;98154.75;5141839;27;19956;-60
2022/07/22 08:49:24;;;;;;;;;;;;;;;28.11;90.04;98156.22;5144376;27;19983;-60
2022/07/22 08:51:51;;;;;;;;;;;;;;;28.35;86.31;98162.03;5143766;27;20405;-59
2022/07/22 08:54:17;;;;;;;;;;;;;;;29.09;83.28;98151.09;5140778;27;19930;-59
2022/07/22 08:56:46;;;;;;;;;;;;;;;29.17;80.98;98155.50;5140840;27;19923;-60
2022/07/22 08:59:13;;;;;;;;;;;;;;;28.48;80.42;98154.34;5143979;27;19923;-59
2022/07/22 09:01:59;;;;;;;;;;;;;;;28.35;82.60;98147.50;5144038;27;19923;-59
2022/07/22 09:04:27;;;;;;;;;;;;;;;28.68;82.01;98152.25;5133695;27;19995;-60
2022/07/22 09:06:53;;;;;;;;;;;;;;;29.05;78.16;98144.78;5139781;27;19920;-60
2022/07/22 09:09:29;;;;;;;;;;;;;;;29.30;76.59;98148.56;5144107;27;19930;-59
2022/07/22 09:12:04;;;;;;;;;;;;;;;29.45;71.30;98135.72;5140657;27;19934;-60
2022/07/22 09:14:43;;;;;;;;;;;;;;;29.10;73.13;98157.38;5140532;27;20240;-60
2022/07/22 09:17:22;;;;;;;;;;;;;;;28.51;72.99;98156.34;5142940;27;19931;-59
2022/07/22 09:19:50;;;;;;;;;;;;;;;28.36;74.15;98149.88;5143711;27;20153;-60
2022/07/22 09:22:30;;;;;;;;;;;;;;;28.17;79.70;98150.03;5132258;27;19924;-60
2022/07/22 09:24:57;;;;;;;;;;;;;;;28.24;78.97;98152.09;5140967;27;19924;-59
2022/07/22 09:27:23;;;;;;;;;;;;;;;28.23;81.69;98154.03;5143661;27;19923;-60
2022/07/22 09:29:50;;;;;;;;;;;;;;;28.35;80.67;98156.53;5143391;27;19953;-59
2022/07/22 09:32:16;;;;;;;;;;;;;;;28.66;80.73;98151.81;5140061;27;19996;-60
2022/07/22 09:34:43;;;;;;;;;;;;;;;28.54;80.98;98141.84;5140141;27;19992;-60
2022/07/22 09:37:12;;;;;;;;;;;;;;;28.23;82.40;98147.75;5142799;27;19959;-63
2022/07/22 09:39:38;;;;;;;;;;;;;;;28.45;80.63;98135.84;5143549;27;20495;-60
2022/07/22 09:42:06;;;;;;;;;;;;;;;28.71;80.67;98129.50;5139175;27;19974;-59
2022/07/22 09:44:32;;;;;;;;;;;;;;;29.10;78.98;98125.16;5139763;27;19975;-61
2022/07/22 09:46:59;;;;;;;;;;;;;;;28.53;79.79;98123.00;5141094;27;20014;-61
2022/07/22 09:49:33;;;;;;;;;;;;;;;28.23;81.61;98132.06;5143300;27;19930;-60
2022/07/22 09:52:00;;;;;;;;;;;;;;;28.03;82.24;98119.63;5141905;27;19923;-60
2022/07/22 09:54:29;;;;;;;;;;;;;;;28.11;83.88;98123.25;5139921;27;20039;-60
2022/07/22 09:56:55;;;;;;;;;;;;;;;28.31;81.67;98110.97;5140454;27;19924;-61
2022/07/22 09:59:22;;;;;;;;;;;;;;;28.30;81.59;98109.38;5143117;27;19927;-60
2022/07/22 10:01:50;;;;;;;;;;;;;;;28.88;80.37;98096.69;5143130;27;19962;-59
2022/07/22 10:04:17;;;;;;;;;;;;;;;29.20;75.59;98104.44;5131397;27;19943;-60
2022/07/22 10:06:44;;;;;;;;;;;;;;;28.70;77.53;98100.44;5139710;27;20488;-60
2022/07/22 10:09:11;;;;;;;;;;;;;;;28.68;79.17;98095.31;5142237;27;20833;-61
2022/07/22 10:11:44;;;;;;;;;;;;;;;28.90;79.43;98088.88;5142869;27;19923;-61
2022/07/22 10:14:11;;;;;;;;;;;;;;;28.99;77.52;98096.00;5139325;27;19923;-61
2022/07/22 10:16:38;;;;;;;;;;;;;;;29.23;76.21;98085.22;5139596;27;19924;-63
2022/07/22 10:19:05;;;;;;;;;;;;;;;29.10;77.73;98083.13;5141333;27;19991;-61
2022/07/22 10:21:32;;;;;;;;;;;;;;;29.16;76.17;98087.09;5142637;27;19994;-60
2022/07/22 10:24:08;;;;;;;;;;;;;;;29.13;76.67;98074.13;5141266;27;19988;-59
2022/07/22 10:26:48;;;;;;;;;;;;;;;29.57;74.79;98083.13;5139215;27;19924;-60
2022/07/22 10:29:28;;;;;;;;;;;;;;;29.39;75.31;98073.97;5141539;27;19924;-60
2022/07/22 10:32:13;;;;;;;;;;;;;;;29.64;74.69;98074.91;5141716;27;19927;-59
2022/07/22 10:34:39;;;;;;;;;;;;;;;30.00;73.14;98070.41;5138553;27;20379;-59
2022/07/22 10:37:34;;;;;;;;;;;;;;;29.43;74.63;98075.56;5140977;27;19928;-60
2022/07/22 10:40:10;;;;;;;;;;;;;;;29.03;74.30;98078.34;5140694;27;19987;-60
2022/07/22 10:42:51;;;;;;;;;;;;;;;29.08;76.64;98064.28;5136590;27;19928;-59
2022/07/22 10:45:19;;;;;;;;;;;;;;;29.58;74.28;98061.91;5130125;27;19924;-60
2022/07/22 10:47:55;;;;;;;;;;;;;;;29.34;71.20;98055.03;5138970;27;20056;-60
2022/07/22 10:50:49;;;;;;;;;;;;;;;29.34;72.44;98058.59;5130740;27;22540;-60
2022/07/22 10:53:16;;;;;;;;;;;;;;;29.82;71.07;98061.28;5115343;27;19935;-61
2022/07/22 10:55:59;;;;;;;;;;;;;;;29.62;69.78;98060.72;5138681;27;20006;-61
2022/07/22 10:58:45;;;;;;;;;;;;;;;29.84;69.88;98056.16;5131799;27;19923;-60
2022/07/22 11:01:13;;;;;;;;;;;;;;;30.03;67.66;98057.81;5141924;27;19924;-59
2022/07/22 11:03:41;;;;;;;;;;;;;;;30.01;66.29;98052.72;5142488;28;20009;-61
2022/07/22 11:06:18;;;;;;;;;;;;;;;29.78;65.55;98061.22;5139988;28;19923;-60
2022/07/22 11:08:45;;;;;;;;;;;;;;;29.41;66.67;98052.34;5138705;28;19924;-61
2022/07/22 11:11:12;;;;;;;;;;;;;;;29.36;67.16;98049.97;5141595;28;20263;-60
2022/07/22 11:13:39;;;;;;;;;;;;;;;29.47;67.03;98042.56;5139964;28;19924;-60
2022/07/22 11:16:17;;;;;;;;;;;;;;;29.55;65.10;98040.66;5139669;28;19975;-60
2022/07/22 11:18:51;;;;;;;;;;;;;;;29.76;62.94;98033.28;5138841;28;19987;-61
2022/07/22 11:21:17;;;;;;;;;;;;;;;30.13;64.02;98029.53;5130706;28;19935;-59
2022/07/22 11:23:44;;;;;;;;;;;;;;;30.19;62.82;98025.22;5138763;28;20334;-60
2022/07/22 11:26:13;;;;;;;;;;;;;;;30.20;62.44;98024.06;5141698;28;19999;-61
2022/07/22 11:28:40;;;;;;;;;;;;;;;30.30;61.35;98015.00;5142233;28;19994;-60
2022/07/22 11:31:07;;;;;;;;;;;;;;;30.52;60.34;98022.97;5139699;28;19927;-60
2022/07/22 11:33:34;;;;;;;;;;;;;;;30.55;60.44;98024.13;5138663;28;19924;-60
2022/07/22 11:36:01;;;;;;;;;;;;;;;30.54;60.82;98008.81;5140100;28;19954;-61
2022/07/22 11:38:39;;;;;;;;;;;;;;;30.74;60.97;98009.19;5142346;28;19931;-61
2022/07/22 11:41:06;;;;;;;;;;;;;;;30.81;61.30;98012.75;5143122;27;19929;-61
2022/07/22 11:43:38;;;;;;;;;;;;;;;30.92;58.33;98001.72;5139932;27;19923;-59
2022/07/22 11:46:04;;;;;;;;;;;;;;;31.02;59.56;97996.22;5143665;27;19920;-60
2022/07/22 11:48:30;;;;;;;;;;;;;;;31.02;58.32;97993.47;5142392;27;19923;-60
2022/07/22 11:51:00;;;;;;;;;;;;;;;30.92;58.60;97996.97;5143368;27;19934;-60
2022/07/22 11:53:27;;;;;;;;;;;;;;;31.07;58.41;97986.00;5146099;27;19924;-61
2022/07/22 11:55:56;;;;;;;;;;;;;;;30.99;57.94;97990.72;5145466;27;19930;-61
2022/07/22 11:58:33;;;;;;;;;;;;;;;30.84;57.20;97983.59;5142497;27;19923;-60
2022/07/22 12:01:00;;;;;;;;;;;;;;;30.76;57.79;97993.81;5143654;27;19927;-60
2022/07/22 12:03:26;;;;;;;;;;;;;;;30.86;58.53;97983.97;5146052;27;19923;-60
2022/07/22 12:05:53;;;;;;;;;;;;;;;30.52;58.72;97976.09;5145489;27;19930;-61
2022/07/22 12:08:20;;;;;;;;;;;;;;;30.57;57.86;97977.69;5142187;27;19977;-60
2022/07/22 12:10:47;;;;;;;;;;;;;;;30.74;58.21;97985.16;5142150;27;20403;-60
2022/07/22 12:13:13;;;;;;;;;;;;;;;30.88;57.14;97970.59;5143439;27;19990;-61
2022/07/22 12:15:40;;;;;;;;;;;;;;;30.65;57.59;97976.50;5145664;27;19938;-61
2022/07/22 12:18:16;;;;;;;;;;;;;;;30.75;57.25;97964.69;5142910;27;19928;-59
2022/07/22 12:20:43;;;;;;;;;;;;;;;30.73;56.22;97963.53;5141537;27;19936;-59
2022/07/22 12:23:10;;;;;;;;;;;;;;;30.71;57.39;97969.41;5144686;27;20417;-61
2022/07/22 12:25:51;;;;;;;;;;;;;;;30.91;56.49;97967.84;5145357;27;19987;-61
2022/07/22 12:28:17;;;;;;;;;;;;;;;31.11;55.17;97959.16;5145328;27;19923;-61
2022/07/22 12:30:43;;;;;;;;;;;;;;;31.11;55.16;97957.19;5145304;27;19923;-61
2022/07/22 12:33:13;;;;;;;;;;;;;;;31.19;53.97;97960.75;5142349;27;19934;-61
2022/07/22 12:35:40;;;;;;;;;;;;;;;30.86;55.28;97957.19;5141899;27;19965;-61
2022/07/22 12:38:07;;;;;;;;;;;;;;;30.83;54.81;97955.22;5143912;27;19934;-61
2022/07/22 12:43:39;;;;;;;;;;;;;;;30.97;55.33;97955.25;5136036;27;19923;-61
2022/07/22 12:46:06;;;;;;;;;;;;;;;30.76;55.46;97944.19;5142267;27;19923;-60